Time;durP1;ratioP1;P1;durP2;ratioP2;P2;SDS_P1;SDS_P2;PMS_P1;PMS_P2;Temp;Humidity;BMP_temperature;BMP_pressure;BME280_temperature;BME280_humidity;BME280_pressure;Samples;Min_cycle;Max_cycle;Signal;HPM_P1;HPM_P2
2022/01/25 00:28:26;;;;;;;23.50;22.17;;;;;;;-8.80;96.35;102314.34;4964211;28;20410;-64
2022/01/25 00:31:14;;;;;;;24.88;23.50;;;;;;;-8.89;96.46;102314.34;4968948;28;20038;-63
2022/01/25 00:33:52;;;;;;;24.15;22.85;;;;;;;-8.92;97.01;102316.09;4966378;28;20055;-63
2022/01/25 00:36:20;;;;;;;25.73;24.38;;;;;;;-8.82;96.58;102301.47;4966383;28;20054;-63
2022/01/25 00:38:46;;;;;;;25.00;23.60;;;;;;;-8.95;96.08;102304.97;4966400;28;20518;-62
2022/01/25 00:41:12;;;;;;;26.35;24.90;;;;;;;-9.00;96.68;102306.69;4971060;28;20114;-62
2022/01/25 00:43:38;;;;;;;24.48;23.17;;;;;;;-8.94;96.84;102304.97;4968557;28;20109;-62
2022/01/25 00:46:08;;;;;;;24.05;22.85;;;;;;;-8.96;95.96;102303.25;4970553;28;20046;-64
2022/01/25 00:53:58;;;;;;;;;;;;;;;-8.96;96.00;102298.97;4969040;28;20490;-63
2022/01/25 00:56:26;;;;;;;25.67;24.27;;;;;;;-8.89;96.61;102314.34;4967624;28;20008;-64
2022/01/25 00:58:52;;;;;;;23.10;21.90;;;;;;;-8.92;96.52;102315.22;4970031;28;20061;-64
2022/01/25 01:01:19;;;;;;;25.95;24.55;;;;;;;-9.01;96.19;102316.13;4967774;28;20113;-64
2022/01/25 01:03:44;;;;;;;25.45;24.08;;;;;;;-8.97;96.56;102314.38;4970880;28;20030;-62
2022/01/25 01:06:10;;;;;;;24.20;22.90;;;;;;;-8.99;96.09;102310.97;4966495;28;20053;-63
2022/01/25 01:08:35;;;;;;;23.35;22.15;;;;;;;-9.17;96.29;102290.50;4966742;28;20070;-63
2022/01/25 01:11:04;;;;;;;24.33;23.00;;;;;;;-9.06;96.26;102310.16;4968728;28;20031;-63
2022/01/25 01:30:14;;;;;;;25.00;23.58;;;;;;;-9.19;95.06;102280.22;5007632;28;20041;-63
2022/01/25 01:43:33;;;;;;;25.70;24.40;;;;;;;-9.14;95.59;102278.47;5000644;28;20169;-63
2022/01/25 01:48:40;;;;;;;24.92;23.63;;;;;;;-9.09;95.69;102274.19;5004960;28;20173;-64
2022/01/25 01:51:20;;;;;;;25.13;23.83;;;;;;;-9.16;95.64;102275.06;5006955;28;20037;-64
2022/01/25 01:53:47;;;;;;;24.90;23.60;;;;;;;-9.23;95.51;102278.53;5005077;28;20504;-63
2022/01/25 01:56:13;;;;;;;26.20;24.70;;;;;;;-9.22;95.33;102275.94;5008583;28;20034;-63
2022/01/25 01:58:39;;;;;;;24.83;23.52;;;;;;;-9.24;95.17;102279.41;5010834;28;20030;-62
2022/01/25 02:01:13;;;;;;;24.90;23.58;;;;;;;-9.42;96.14;102276.88;5010334;28;20508;-62
2022/01/25 02:03:38;;;;;;;26.55;25.15;;;;;;;-9.48;96.19;102259.75;5010039;28;20026;-63
2022/01/25 02:06:06;;;;;;;27.40;26.00;;;;;;;-9.23;95.92;102284.53;5011877;28;20386;-64
2022/01/25 02:08:33;;;;;;;24.60;23.30;;;;;;;-9.19;95.91;102282.78;5009354;28;20551;-63
2022/01/25 02:10:59;;;;;;;23.52;22.33;;;;;;;-9.11;95.89;102282.75;5010763;28;20034;-63
2022/01/25 02:13:25;;;;;;;23.88;22.55;;;;;;;-9.19;95.60;102285.34;5010941;28;20033;-64
2022/01/25 02:15:53;;;;;;;24.65;23.27;;;;;;;-9.28;95.68;102291.38;5015174;28;20033;-63
2022/01/25 02:23:36;;;;;;;25.70;24.40;;;;;;;-9.22;95.83;102264.81;5009653;28;20044;-63
2022/01/25 02:26:04;;;;;;;26.73;25.30;;;;;;;-9.21;95.55;102275.09;5013290;28;20493;-64
2022/01/25 02:28:37;;;;;;;25.40;24.00;;;;;;;-9.17;95.46;102265.66;5008492;28;20046;-64
2022/01/25 02:31:05;;;;;;;23.95;22.65;;;;;;;-9.22;95.03;102263.09;5010728;28;20137;-63
2022/01/25 02:33:31;;;;;;;24.50;23.23;;;;;;;-9.20;95.37;102260.50;5010863;28;20116;-62
2022/01/25 02:35:58;;;;;;;25.75;24.30;;;;;;;-9.23;95.38;102261.41;5007422;28;20049;-63
2022/01/25 02:38:29;;;;;;;24.60;23.25;;;;;;;-9.20;95.26;102261.38;5009342;28;20038;-63
2022/01/25 02:40:59;;;;;;;24.80;23.40;;;;;;;-9.19;94.93;102257.06;5009521;28;20034;-63
2022/01/25 02:43:26;;;;;;;24.30;22.90;;;;;;;-9.07;94.90;102261.31;4991546;28;20417;-63
2022/01/25 02:48:55;;;;;;;23.02;21.83;;;;;;;-9.13;95.07;102259.63;5008529;28;20057;-62
2022/01/25 02:51:24;;;;;;;24.02;22.73;;;;;;;-9.09;94.57;102266.47;5014311;28;20080;-62
2022/01/25 02:53:52;;;;;;;23.42;22.23;;;;;;;-9.13;95.65;102254.47;5010956;28;20057;-63
2022/01/25 02:56:18;;;;;;;23.48;22.17;;;;;;;-9.06;95.14;102245.88;5009111;28;20473;-64
2022/01/25 02:58:44;;;;;;;22.75;21.55;;;;;;;-9.14;95.29;102246.78;5010359;28;20034;-62
2022/01/25 03:01:11;;;;;;;23.30;22.05;;;;;;;-9.08;95.35;102245.03;5010488;28;20033;-64
2022/01/25 03:03:37;;;;;;;23.52;22.17;;;;;;;-9.12;95.33;102242.47;5004815;28;20156;-64
2022/01/25 03:06:03;;;;;;;24.05;22.67;;;;;;;-9.21;94.48;102251.94;5009728;28;20053;-63
2022/01/25 03:08:29;;;;;;;24.83;23.40;;;;;;;-9.09;94.64;102248.47;5009502;28;20029;-62
2022/01/25 03:10:54;;;;;;;23.20;22.00;;;;;;;-9.05;94.58;102239.88;5008556;28;20025;-63
2022/01/25 03:13:25;;;;;;;23.15;21.88;;;;;;;-9.13;94.48;102227.94;5003571;28;20030;-63
2022/01/25 03:18:37;;;;;;;23.38;22.10;;;;;;;-9.10;94.00;102239.06;5025198;28;20018;-63
2022/01/25 03:23:45;;;;;;;23.45;22.15;;;;;;;-9.13;93.76;102230.50;5010039;28;20036;-63
2022/01/25 03:26:13;;;;;;;23.70;22.35;;;;;;;-9.10;94.25;102225.34;5010217;28;20053;-62
2022/01/25 03:28:38;;;;;;;23.17;21.98;;;;;;;-9.24;93.68;102225.44;5009063;28;20117;-64
2022/01/25 03:31:03;;;;;;;24.92;23.52;;;;;;;-9.19;94.05;102216.81;5011507;28;20152;-63
2022/01/25 03:33:29;;;;;;;24.42;23.02;;;;;;;-9.14;94.36;102226.22;5006263;28;20030;-63
2022/01/25 03:35:55;;;;;;;24.58;23.27;;;;;;;-9.22;94.59;102219.41;5011404;28;20026;-63
2022/01/25 03:38:20;;;;;;;24.95;23.55;;;;;;;-9.32;94.63;102232.31;5008193;28;20045;-63
2022/01/25 03:40:46;;;;;;;26.13;24.73;;;;;;;-9.30;95.24;102230.59;5008773;28;20117;-63
2022/01/25 03:43:14;;;;;;;24.15;22.85;;;;;;;-9.27;95.19;102221.13;5003363;28;20042;-63
2022/01/25 03:45:56;;;;;;;24.17;22.88;;;;;;;-9.43;94.38;102227.22;5004990;28;20068;-63
2022/01/25 03:50:52;;;;;;;25.52;24.23;;;;;;;-9.42;95.13;102208.34;5006373;28;20441;-63
2022/01/25 03:53:20;;;;;;;27.17;25.58;;;;;;;-9.34;95.14;102204.03;5010530;28;20084;-62
2022/01/25 03:55:47;;;;;;;24.52;23.25;;;;;;;-9.47;95.18;102202.41;5008474;28;20022;-63
2022/01/25 03:58:13;;;;;;;26.85;25.30;;;;;;;-9.53;95.22;102207.56;5007460;28;20477;-64
2022/01/25 04:00:40;;;;;;;25.05;23.65;;;;;;;-9.33;95.39;102203.16;5006542;28;20033;-63
2022/01/25 04:03:22;;;;;;;24.95;23.65;;;;;;;-9.34;95.09;102214.31;5006196;28;20057;-63
2022/01/25 04:05:50;;;;;;;25.10;23.70;;;;;;;-9.43;95.13;102208.38;5006923;28;20081;-64
2022/01/25 04:08:17;;;;;;;24.88;23.63;;;;;;;-9.35;95.77;102215.19;5007808;28;20036;-64
2022/01/25 04:10:43;;;;;;;26.80;25.40;;;;;;;-9.44;95.84;102210.09;5008150;28;20022;-63
2022/01/25 04:13:09;;;;;;;27.35;25.65;;;;;;;-9.30;96.49;102208.31;5007273;28;20029;-64
2022/01/25 04:15:46;;;;;;;24.92;23.63;;;;;;;-9.38;96.08;102209.22;5009382;28;20099;-62
2022/01/25 04:20:56;;;;;;;26.77;25.27;;;;;;;-9.42;96.07;102200.66;5012472;28;20491;-63
2022/01/25 04:26:05;;;;;;;24.88;23.60;;;;;;;-9.45;96.05;102195.53;5010662;28;20112;-63
2022/01/25 04:28:33;;;;;;;27.00;25.48;;;;;;;-9.58;96.39;102187.03;5007420;28;20105;-64
2022/01/25 04:30:59;;;;;;;28.33;26.65;;;;;;;-9.57;96.05;102190.44;5007965;28;20076;-63
2022/01/25 04:33:27;;;;;;;27.52;25.98;;;;;;;-9.53;95.58;102184.44;5003946;28;20025;-64
2022/01/25 04:49:37;;;;;;;29.17;27.48;;;;;;;-9.33;96.90;102199.75;5008705;28;20060;-63
2022/01/25 04:52:10;;;;;;;27.35;25.80;;;;;;;-9.45;96.77;102194.69;5006845;28;20112;-64
2022/01/25 05:00:04;;;;;;;27.13;25.45;;;;;;;-9.41;97.19;102181.81;5003694;28;20092;-64
2022/01/25 05:05:23;;;;;;;;;;;;;;;-9.35;96.76;102168.94;5007197;28;20044;-64
2022/01/25 05:08:40;;;;;;;29.15;27.52;;;;;;;-9.48;96.90;102187.81;5006302;28;19913;-62
2022/01/25 05:10:46;;;;;;;28.58;26.98;;;;;;;-9.33;96.67;102180.03;4992423;28;20034;-62
2022/01/25 05:13:36;;;;;;;27.55;25.85;;;;;;;-9.07;100.00;102173.91;5005718;28;20115;-64
2022/01/25 05:16:05;;;;;;;26.33;24.88;;;;;;;-9.17;98.28;102169.72;5006693;28;20045;-63
2022/01/25 05:18:44;;;;;;;24.13;22.83;;;;;;;-9.18;96.98;102173.97;5008420;28;20049;-63
2022/01/25 05:23:54;;;;;;;25.40;23.90;;;;;;;-9.14;96.30;102175.66;5008112;28;20059;-64
2022/01/25 05:26:20;;;;;;;25.40;23.90;;;;;;;-8.97;97.56;102167.84;5017122;28;20046;-64
2022/01/25 05:28:45;;;;;;;26.35;24.95;;;;;;;-8.98;96.30;102164.41;5009099;28;20033;-63
2022/01/25 05:31:11;;;;;;;24.17;22.95;;;;;;;-8.92;96.71;102166.09;5005451;28;20109;-62
2022/01/25 05:33:36;;;;;;;26.63;25.02;;;;;;;-9.04;96.65;102154.16;5010558;28;20033;-63
2022/01/25 05:36:01;;;;;;;26.20;24.52;;;;;;;-9.10;95.83;102154.25;5009305;28;20033;-63
2022/01/25 05:38:28;;;;;;;24.45;22.98;;;;;;;-9.02;96.98;102160.19;5013414;28;20032;-63
2022/01/25 05:41:00;;;;;;;25.25;23.70;;;;;;;-8.96;96.12;102154.13;5014390;28;20088;-63
2022/01/25 05:48:36;;;;;;;26.52;24.85;;;;;;;-9.16;95.41;102140.56;5002526;28;20079;-64
2022/01/25 05:51:01;;;;;;;24.25;22.95;;;;;;;-9.15;94.83;102144.84;5008740;28;20038;-63
2022/01/25 05:53:27;;;;;;;26.63;25.13;;;;;;;-9.23;95.36;102139.75;5006942;28;20037;-64
2022/01/25 05:55:53;;;;;;;24.98;23.65;;;;;;;-9.17;95.50;102138.88;5012098;28;20034;-63
2022/01/25 05:58:19;;;;;;;24.83;23.42;;;;;;;-9.15;94.98;102132.00;5014401;28;20038;-63
2022/01/25 06:00:44;;;;;;;26.52;24.88;;;;;;;-9.16;94.33;102136.28;5012500;28;20033;-64
2022/01/25 06:03:10;;;;;;;24.13;22.83;;;;;;;-9.10;95.03;102140.53;5016910;28;20026;-64
2022/01/25 06:05:35;;;;;;;24.85;23.45;;;;;;;-8.99;95.39;102138.72;5011386;28;20029;-62
2022/01/25 06:08:03;;;;;;;23.17;21.98;;;;;;;-9.28;95.10;102134.63;5004804;28;22400;-64
2022/01/25 06:10:28;;;;;;;25.88;24.27;;;;;;;-9.24;94.11;102114.91;5003594;28;20078;-65
2022/01/25 06:12:54;;;;;;;25.42;23.90;;;;;;;-9.01;94.71;102132.75;5007510;28;20066;-64
2022/01/25 06:15:20;;;;;;;23.65;22.35;;;;;;;-9.01;94.21;102132.75;5010486;28;20030;-62
2022/01/25 06:17:46;;;;;;;23.63;22.25;;;;;;;-8.86;94.37;102130.06;5009345;28;20041;-63
2022/01/25 06:20:14;;;;;;;22.80;21.60;;;;;;;-8.99;94.02;102113.88;5006270;28;20405;-64
2022/01/25 06:22:40;;;;;;;23.20;21.83;;;;;;;-9.14;93.75;102119.13;5007977;28;20044;-63
2022/01/25 06:25:07;;;;;;;24.60;23.27;;;;;;;-9.12;93.64;102112.25;5008308;28;20029;-62
2022/01/25 06:27:33;;;;;;;25.65;24.15;;;;;;;-9.17;93.76;102113.16;5007487;28;20046;-64
2022/01/25 06:29:59;;;;;;;26.90;25.42;;;;;;;-9.06;94.16;102109.63;5010298;28;20022;-62
2022/01/25 06:32:24;;;;;;;24.80;23.38;;;;;;;-8.94;94.26;102108.69;5005878;28;20124;-64
2022/01/25 06:34:49;;;;;;;25.67;24.17;;;;;;;-9.08;93.36;102102.81;5009401;28;20109;-63
2022/01/25 06:37:15;;;;;;;25.35;23.92;;;;;;;-9.23;93.72;102106.34;5008345;28;20053;-63
2022/01/25 06:39:42;;;;;;;26.55;24.95;;;;;;;-9.17;94.61;102106.31;5006527;28;20025;-62
2022/01/25 06:42:08;;;;;;;25.40;24.00;;;;;;;-9.34;93.92;102100.41;5007143;28;20155;-63
2022/01/25 06:44:36;;;;;;;27.25;25.65;;;;;;;-9.36;93.93;102118.41;5004091;28;20058;-63
2022/01/25 06:47:02;;;;;;;28.85;27.13;;;;;;;-9.36;94.47;102112.41;5009387;28;20050;-63
2022/01/25 06:49:28;;;;;;;27.60;26.00;;;;;;;-9.32;94.39;102104.69;5009896;28;20034;-62
2022/01/25 06:51:53;;;;;;;27.52;26.02;;;;;;;-9.21;93.70;102104.59;5007046;28;20362;-64
2022/01/25 06:54:21;;;;;;;27.73;26.13;;;;;;;-9.16;93.76;102110.56;5009724;28;20088;-63
2022/01/25 06:56:47;;;;;;;27.05;25.52;;;;;;;-9.21;93.69;102108.03;5008973;28;20101;-62
2022/01/25 06:59:12;;;;;;;26.17;24.80;;;;;;;-9.33;93.78;102102.09;5009672;28;20041;-64
2022/01/25 07:01:38;;;;;;;26.88;25.40;;;;;;;-9.25;93.45;102103.78;5007419;28;20049;-63
2022/01/25 07:04:03;;;;;;;27.75;26.35;;;;;;;-9.29;93.37;102096.94;5007780;28;20034;-63
2022/01/25 07:06:29;;;;;;;28.52;26.98;;;;;;;-9.17;93.45;102093.44;5009375;28;20076;-62
2022/01/25 07:08:55;;;;;;;26.80;25.33;;;;;;;-9.14;92.71;102090.00;5010945;28;20033;-63
2022/01/25 07:11:21;;;;;;;27.48;25.98;;;;;;;-9.27;93.61;102095.22;5004338;28;20029;-63
2022/01/25 07:13:47;;;;;;;29.23;27.63;;;;;;;-9.35;93.08;102089.28;5008016;28;20038;-63
2022/01/25 07:16:13;;;;;;;27.98;26.50;;;;;;;-9.23;93.18;102086.63;5009062;28;20489;-64
2022/01/25 07:18:40;;;;;;;28.48;26.85;;;;;;;-9.07;92.34;102071.09;5002523;28;20064;-62
2022/01/25 07:21:05;;;;;;;29.50;27.85;;;;;;;-9.03;92.12;102089.06;5010231;28;20030;-63
2022/01/25 07:23:31;;;;;;;27.25;25.77;;;;;;;-8.88;92.27;102094.94;5003511;28;20030;-63
2022/01/25 07:25:57;;;;;;;25.20;23.88;;;;;;;-8.95;91.79;102087.28;5009910;28;20030;-64
2022/01/25 07:28:23;;;;;;;26.80;25.38;;;;;;;-8.84;91.51;102094.03;5006505;28;20025;-64
2022/01/25 07:30:51;;;;;;;25.58;24.17;;;;;;;-8.97;90.70;102089.00;5002490;28;20452;-62
2022/01/25 07:33:17;;;;;;;24.75;23.48;;;;;;;-8.77;91.53;102086.25;5005421;28;20048;-65
2022/01/25 07:35:44;;;;;;;25.30;23.90;;;;;;;-8.74;91.10;102087.94;5004490;28;20029;-65
2022/01/25 07:38:10;;;;;;;24.73;23.42;;;;;;;-8.92;90.95;102088.97;5009603;28;20034;-64
2022/01/25 07:40:37;;;;;;;25.00;23.65;;;;;;;-8.78;90.63;102088.84;5006692;28;20042;-64
2022/01/25 07:43:07;;;;;;;27.40;25.63;;;;;;;-8.76;90.77;102111.09;5003632;28;20523;-65
2022/01/25 07:45:35;;;;;;;25.67;24.13;;;;;;;-8.68;90.73;102096.44;5003668;28;20397;-64
2022/01/25 07:48:06;;;;;;;23.48;22.17;;;;;;;-8.77;90.33;102082.84;5009885;28;20046;-64
2022/01/25 07:50:32;;;;;;;23.15;21.95;;;;;;;-8.81;89.97;102094.88;5013234;28;20076;-64
2022/01/25 07:52:57;;;;;;;24.33;22.92;;;;;;;-8.73;89.87;102097.38;5007593;28;20038;-63
2022/01/25 07:55:23;;;;;;;24.88;23.55;;;;;;;-8.74;90.28;102093.06;5009689;28;20489;-63
2022/01/25 07:57:49;;;;;;;24.85;23.48;;;;;;;-8.74;89.53;102090.50;5003299;28;20072;-64
2022/01/25 08:00:14;;;;;;;24.65;23.33;;;;;;;-8.54;88.92;102087.75;5021630;28;20041;-65
2022/01/25 08:02:41;;;;;;;25.23;23.73;;;;;;;-8.64;88.98;102089.56;5009819;28;20034;-64
2022/01/25 08:05:07;;;;;;;23.98;22.67;;;;;;;-8.31;88.04;102098.63;5008289;28;20044;-65
2022/01/25 08:07:33;;;;;;;24.20;22.88;;;;;;;-7.92;87.56;102083.63;5008288;28;20034;-65
2022/01/25 08:09:58;;;;;;;23.92;22.52;;;;;;;-8.22;87.12;102084.84;5006999;28;20421;-65
2022/01/25 08:12:25;;;;;;;21.63;20.52;;;;;;;-7.97;87.25;102090.53;5007606;28;20084;-65
2022/01/25 08:14:53;;;;;;;22.48;21.17;;;;;;;-8.05;87.59;102089.78;5008066;28;20398;-64
2022/01/25 08:17:21;;;;;;;22.25;21.05;;;;;;;-8.16;87.00;102088.16;4994654;28;20037;-64
2022/01/25 08:19:46;;;;;;;22.45;21.15;;;;;;;-7.74;87.34;102097.97;5006510;28;20544;-64
2022/01/25 08:22:12;;;;;;;21.08;19.98;;;;;;;-7.82;86.69;102044.81;5007560;28;20149;-64
2022/01/25 08:24:37;;;;;;;22.67;21.27;;;;;;;-7.37;85.28;102083.69;5005574;28;20037;-65
2022/01/25 08:27:03;;;;;;;20.02;19.02;;;;;;;-7.30;84.61;102081.88;5006794;28;20041;-65
2022/01/25 08:29:28;;;;;;;19.90;18.88;;;;;;;-7.06;83.06;102078.91;5005084;28;20109;-64
2022/01/25 08:31:54;;;;;;;20.67;19.38;;;;;;;-6.79;81.24;102077.63;5025112;28;20113;-65
2022/01/25 08:34:20;;;;;;;19.58;18.38;;;;;;;-6.97;80.94;102073.63;5010044;28;20038;-65
2022/01/25 08:36:45;;;;;;;21.13;19.67;;;;;;;-6.26;78.51;102080.09;4988803;28;20040;-64
2022/01/25 08:39:11;;;;;;;17.60;16.60;;;;;;;-6.21;78.44;102073.97;5007652;28;20037;-65
2022/01/25 08:41:36;;;;;;;16.02;15.25;;;;;;;-5.51;76.51;102071.63;5007091;28;20026;-65
2022/01/25 08:44:05;;;;;;;14.68;13.90;;;;;;;-5.10;74.55;102069.81;5005220;28;20119;-64
2022/01/25 08:46:32;;;;;;;13.82;13.02;;;;;;;-1.46;62.41;102056.59;5004558;28;20060;-64
2022/01/25 08:48:57;;;;;;;12.02;11.32;;;;;;;-0.03;57.81;102070.53;5007511;28;20042;-64
2022/01/25 08:51:23;;;;;;;9.35;8.85;;;;;;;1.70;47.88;102067.41;5025061;28;20042;-64
2022/01/25 08:53:48;;;;;;;8.98;8.43;;;;;;;1.45;49.74;102055.56;5008428;28;20056;-64
2022/01/25 08:56:17;;;;;;;7.63;7.22;;;;;;;3.38;44.22;102051.00;5007973;28;20374;-64
2022/01/25 08:58:43;;;;;;;8.68;8.15;;;;;;;-0.89;52.03;102049.91;5004756;28;20074;-64
2022/01/25 09:01:09;;;;;;;8.98;8.48;;;;;;;-2.27;55.83;102054.41;5005062;28;20026;-64
2022/01/25 09:03:34;;;;;;;10.20;9.60;;;;;;;0.24;51.08;102051.00;5007405;28;20096;-65
2022/01/25 09:06:00;;;;;;;9.18;8.68;;;;;;;3.12;43.06;102051.69;5006138;28;20038;-64
2022/01/25 09:08:28;;;;;;;9.02;8.52;;;;;;;0.30;48.19;102036.00;5010101;28;20034;-66
2022/01/25 09:10:58;;;;;;;9.13;8.63;;;;;;;1.44;45.92;102034.72;5006733;28;20113;-66
2022/01/25 09:13:24;;;;;;;8.70;8.20;;;;;;;0.05;46.73;102031.03;5007998;28;20493;-66
2022/01/25 09:15:50;;;;;;;9.00;8.50;;;;;;;-0.54;49.79;102024.97;5003860;28;20033;-64
2022/01/25 09:18:19;;;;;;;9.95;9.35;;;;;;;-0.80;52.45;102020.06;5009599;28;20409;-66
2022/01/25 09:20:46;;;;;;;10.45;9.85;;;;;;;-0.15;49.58;102005.84;5007059;28;20076;-67
2022/01/25 09:23:15;;;;;;;9.75;9.25;;;;;;;-0.69;51.25;102023.03;5007462;28;20409;-66
2022/01/25 09:25:41;;;;;;;11.15;10.40;;;;;;;-1.61;53.26;102020.75;5004274;28;20473;-66
2022/01/25 09:28:06;;;;;;;11.43;10.68;;;;;;;-1.08;52.35;102022.94;5003110;28;20046;-65
2022/01/25 09:30:32;;;;;;;12.32;11.43;;;;;;;1.66;46.17;102017.00;5008156;28;20145;-65
2022/01/25 09:32:57;;;;;;;9.45;8.95;;;;;;;3.59;41.98;102012.13;5010354;28;20057;-65
2022/01/25 09:35:24;;;;;;;8.85;8.35;;;;;;;2.30;42.61;101987.34;5010701;28;20029;-66
2022/01/25 09:37:51;;;;;;;8.32;7.93;;;;;;;2.97;41.17;101999.22;5003284;28;20052;-65
2022/01/25 09:40:17;;;;;;;9.10;8.60;;;;;;;1.93;42.57;101994.59;5011717;28;20073;-65
2022/01/25 09:42:42;;;;;;;9.52;8.93;;;;;;;-0.95;48.43;101998.09;4999938;28;20086;-65
2022/01/25 09:45:11;;;;;;;9.10;8.60;;;;;;;-1.36;51.49;101994.59;5011465;28;20507;-65
2022/01/25 09:47:38;;;;;;;11.90;11.05;;;;;;;-0.75;50.81;101990.25;5009817;28;20045;-65
2022/01/25 09:50:04;;;;;;;11.02;10.32;;;;;;;-1.31;51.93;101990.91;5005881;28;20022;-67
2022/01/25 09:52:29;;;;;;;12.80;11.90;;;;;;;-0.86;52.16;101982.06;4998379;28;20053;-68
2022/01/25 09:54:57;;;;;;;13.57;12.57;;;;;;;-1.88;53.78;101981.03;5001948;28;20018;-65
2022/01/25 09:57:24;;;;;;;12.02;11.32;;;;;;;-2.13;55.70;101973.31;5008560;28;20055;-67
2022/01/25 09:59:55;;;;;;;13.35;12.45;;;;;;;-2.16;56.48;101968.22;4999417;28;20212;-67
2022/01/25 10:03:26;;;;;;;13.55;12.65;;;;;;;-2.51;57.05;101954.78;5004629;28;20033;-66
2022/01/25 10:05:45;;;;;;;14.18;13.15;;;;;;;-2.24;57.09;101955.53;5000369;28;20085;-65
2022/01/25 10:08:21;;;;;;;12.60;11.82;;;;;;;-1.78;56.71;101945.94;4999680;28;20121;-66
2022/01/25 10:10:51;;;;;;;12.98;12.15;;;;;;;-1.75;56.34;101946.69;4996104;28;20042;-65
2022/01/25 10:13:29;;;;;;;12.48;11.68;;;;;;;-2.00;57.33;101940.75;5002163;28;20048;-65
2022/01/25 10:16:02;;;;;;;11.55;10.95;;;;;;;-3.40;59.19;101938.84;5004144;28;20030;-67
2022/01/25 10:18:46;;;;;;;11.95;11.25;;;;;;;-3.49;61.97;101936.56;5003184;28;20026;-67
2022/01/25 10:21:28;;;;;;;13.75;12.82;;;;;;;-3.13;60.63;101924.97;5006837;28;20041;-66
2022/01/25 10:24:07;;;;;;;12.98;12.18;;;;;;;-3.69;62.03;101932.03;5009926;28;20057;-65
2022/01/25 10:26:39;;;;;;;13.45;12.65;;;;;;;-4.15;63.54;101920.50;5017795;28;20041;-64
2022/01/25 10:29:09;;;;;;;13.68;12.82;;;;;;;-4.64;67.09;101918.50;5020326;28;20041;-65
2022/01/25 10:31:40;;;;;;;13.93;13.13;;;;;;;-4.31;66.50;101901.97;5011987;28;20026;-64
2022/01/25 10:34:08;;;;;;;14.63;13.70;;;;;;;-4.34;66.76;101889.09;5003056;28;20040;-64
2022/01/25 10:36:38;;;;;;;13.40;12.68;;;;;;;-3.80;65.55;101903.00;5014017;28;20064;-64
2022/01/25 10:39:04;;;;;;;12.88;12.18;;;;;;;-3.72;65.08;101886.31;5005110;28;20073;-64
2022/01/25 10:41:31;;;;;;;13.27;12.43;;;;;;;-3.90;64.79;101889.47;5003334;28;20390;-65
2022/01/25 10:43:57;;;;;;;13.82;12.93;;;;;;;-4.21;66.68;101882.66;5007963;28;20026;-64
2022/01/25 10:46:29;;;;;;;13.25;12.45;;;;;;;-3.69;65.06;101874.97;5009489;28;20080;-63
2022/01/25 10:48:58;;;;;;;12.50;11.80;;;;;;;-3.72;65.22;101878.53;5003982;28;20457;-64
2022/01/25 10:51:41;;;;;;;15.23;14.13;;;;;;;-4.15;66.89;101883.38;5007022;28;20063;-64
2022/01/25 10:54:20;;;;;;;12.75;11.95;;;;;;;-3.85;66.69;101866.00;5011895;28;20374;-65
2022/01/25 10:56:49;;;;;;;13.43;12.57;;;;;;;-3.46;65.47;101866.41;5010612;28;20029;-65
2022/01/25 10:59:29;;;;;;;12.35;11.65;;;;;;;-3.53;65.90;101870.13;5007229;28;20037;-65
2022/01/25 11:02:00;;;;;;;14.65;13.57;;;;;;;-3.73;66.34;101856.09;5010132;28;20076;-64
2022/01/25 11:04:34;;;;;;;13.82;12.90;;;;;;;-3.47;66.74;101854.34;5007523;28;20040;-63
2022/01/25 11:07:08;;;;;;;13.43;12.52;;;;;;;-3.80;66.51;101844.22;5010335;28;20088;-63
2022/01/25 11:09:37;;;;;;;;;;;;;;;-3.48;65.39;101842.28;5009803;28;20026;-64
2022/01/25 11:12:06;;;;;;;12.98;12.18;;;;;;;-3.85;66.92;101835.75;5009349;28;19921;-63
2022/01/25 11:14:53;;;;;;;12.32;11.63;;;;;;;-3.50;66.60;101842.34;5012026;28;20052;-64
2022/01/25 11:17:27;;;;;;;12.65;11.85;;;;;;;-3.18;65.93;101829.97;5005179;28;20022;-63
2022/01/25 11:19:54;;;;;;;12.25;11.48;;;;;;;-3.16;64.81;101830.75;5006103;28;20022;-64
2022/01/25 11:22:20;;;;;;;11.95;11.25;;;;;;;-3.70;65.29;101785.13;5024683;28;20128;-64
2022/01/25 11:24:58;;;;;;;11.45;10.85;;;;;;;-3.22;64.96;101818.03;5017602;28;20034;-64
2022/01/25 11:27:26;;;;;;;12.20;11.50;;;;;;;-3.13;65.39;101817.69;5010323;28;20076;-63
2022/01/25 11:29:55;;;;;;;13.05;12.18;;;;;;;-3.06;64.36;101811.38;5014249;28;20041;-63
2022/01/25 11:32:26;;;;;;;12.30;11.57;;;;;;;-3.15;64.89;101804.78;5012437;28;20090;-63
2022/01/25 11:34:52;;;;;;;11.63;10.93;;;;;;;-3.07;65.32;101801.91;5026919;28;20049;-63
2022/01/25 11:37:19;;;;;;;11.93;11.23;;;;;;;-3.23;65.01;101796.44;5011645;28;20109;-64
2022/01/25 11:39:47;;;;;;;13.02;12.13;;;;;;;-3.48;65.61;101790.41;5009854;28;20061;-64
2022/01/25 11:42:23;;;;;;;11.60;11.00;;;;;;;-3.13;64.07;101795.19;5015972;28;20025;-64
2022/01/25 11:44:51;;;;;;;13.00;12.10;;;;;;;-3.16;66.12;101789.25;5007476;28;20064;-64
2022/01/25 11:47:20;;;;;;;11.13;10.52;;;;;;;-3.18;64.94;101778.09;5005352;28;20053;-65
2022/01/25 11:50:01;;;;;;;12.40;11.60;;;;;;;-2.81;63.81;101786.19;5010648;28;20034;-64
2022/01/25 11:52:31;;;;;;;11.90;11.20;;;;;;;-3.01;65.19;101770.53;5006421;28;20045;-64
2022/01/25 11:55:26;;;;;;;12.50;11.73;;;;;;;-2.74;64.36;101771.22;5004236;28;20417;-64
2022/01/25 11:58:13;;;;;;;12.35;11.55;;;;;;;-2.60;64.38;101775.88;5003183;28;20038;-64
2022/01/25 12:00:48;;;;;;;14.15;13.05;;;;;;;-2.97;64.90;101768.66;5004393;28;20075;-65
2022/01/25 12:03:23;;;;;;;11.95;11.15;;;;;;;-2.55;64.39;101766.16;5005438;28;20121;-66
2022/01/25 12:06:13;;;;;;;12.55;11.75;;;;;;;-2.97;65.04;101760.88;5009191;28;20034;-64
2022/01/25 12:11:47;;;;;;;12.57;11.75;;;;;;;-3.14;66.84;101746.78;5005067;28;20045;-64
2022/01/25 12:14:14;;;;;;;12.52;11.73;;;;;;;-2.46;64.25;101752.81;5005815;28;20160;-64
2022/01/25 12:16:45;;;;;;;12.23;11.48;;;;;;;-2.64;63.99;101756.16;5009333;28;26114;-64
2022/01/25 12:19:17;;;;;;;11.07;10.48;;;;;;;-2.29;63.61;101745.16;5010054;28;20068;-64
2022/01/25 12:21:49;;;;;;;12.10;11.30;;;;;;;-2.35;63.97;101747.16;5011868;28;20038;-64
2022/01/25 12:24:22;;;;;;;10.10;9.60;;;;;;;-2.53;63.85;101749.59;5011546;28;20041;-63
2022/01/25 12:27:29;;;;;;;11.38;10.68;;;;;;;-2.22;63.69;101740.56;5014386;28;20046;-64
2022/01/25 12:30:02;;;;;;;10.88;10.27;;;;;;;-2.40;63.50;101742.19;5010303;28;20489;-65
2022/01/25 12:32:36;;;;;;;12.27;11.48;;;;;;;-2.19;64.39;101737.84;5007187;28;20113;-64
2022/01/25 12:35:12;;;;;;;11.85;11.07;;;;;;;-2.29;63.62;101739.13;5007830;28;20068;-64
2022/01/25 12:37:58;;;;;;;12.80;11.90;;;;;;;-2.49;65.06;101739.94;5003454;28;20120;-65
2022/01/25 12:40:26;;;;;;;12.07;11.27;;;;;;;-2.29;63.80;101733.94;4998594;28;20026;-64
2022/01/25 12:42:57;;;;;;;11.48;10.77;;;;;;;-2.30;64.40;101729.63;5009413;28;20054;-65
2022/01/25 12:45:25;;;;;;;11.13;10.45;;;;;;;-2.62;63.87;101724.00;5003815;28;20042;-64
2022/01/25 12:47:58;;;;;;;10.70;10.10;;;;;;;-2.34;63.49;101722.91;5005050;28;20034;-64
2022/01/25 12:50:26;;;;;;;10.77;10.17;;;;;;;-2.61;63.63;101723.09;5009023;28;20025;-64
2022/01/25 12:52:51;;;;;;;10.85;10.25;;;;;;;-2.49;63.85;101726.13;5006015;28;20034;-64
2022/01/25 12:55:24;;;;;;;11.63;10.90;;;;;;;-2.25;64.07;101718.16;5009939;28;20108;-65
2022/01/25 12:57:51;;;;;;;12.60;11.70;;;;;;;-2.16;63.60;101716.09;5018930;28;20045;-65
2022/01/25 13:00:18;;;;;;;10.10;9.60;;;;;;;-1.92;62.91;101703.78;5008981;28;20060;-67
2022/01/25 13:02:44;;;;;;;11.13;10.43;;;;;;;-1.88;61.25;101708.81;5023895;28;20101;-65
2022/01/25 13:05:18;;;;;;;9.77;9.27;;;;;;;-1.76;61.70;101708.28;5009456;28;20125;-64
2022/01/25 13:07:44;;;;;;;10.70;10.10;;;;;;;-2.02;61.44;101698.16;4999940;28;20520;-63
2022/01/25 13:10:12;;;;;;;11.88;11.07;;;;;;;-1.98;61.06;101691.91;5006830;28;20030;-63
2022/01/25 13:12:55;;;;;;;10.15;9.65;;;;;;;-1.65;61.73;101683.53;5008582;28;20022;-64
2022/01/25 13:15:39;;;;;;;11.23;10.52;;;;;;;-1.52;60.16;101688.13;5015629;28;20076;-66
2022/01/25 13:18:12;;;;;;;10.37;9.77;;;;;;;-1.92;59.90;101678.63;5004078;28;20025;-63